Cullybackey, United Kingdom
Current Conditions -  °F | °C
As of 4:20 AM on Monday 26 Jan 2015 (Local Time) from EGAA Reporting Station
Few Clouds Few Clouds  
Wind Chill: 32°   Ceiling: Unl
Heat Index: 39°   Visibility: 6mi
Dew Point: 37°   Wind: 10mph
Humidity: 93%   Direction: 240°WSW
Pressure: 30.12"   Gusts: NA
Location:  54.89°N, 6.35°W
Report Text: EGAA 260420Z AUTO 24009KT 9999 FEW036/// 04/03 Q1020
Loading
Personal Weather Stations






























Interactive Weather Map New forecast layout! Learn more

10-Day Weather Forecast

Advertisements
Track Severe Weather on mobile